Time;durP1;ratioP1;P1;durP2;ratioP2;P2;SDS_P1;SDS_P2;PMS_P1;PMS_P2;Temp;Humidity;BMP_temperature;BMP_pressure;BME280_temperature;BME280_humidity;BME280_pressure;Samples;Min_cycle;Max_cycle;Signal;HPM_P1;HPM_P2
2023/08/02 00:00:01;;;;;;;0.10;0.10;;;;;;;16.32;77.00;98249.81;7346586;19;20010;-57
2023/08/02 00:02:27;;;;;;;0.10;0.10;;;;;;;16.29;78.61;98239.53;7343294;19;20343;-58
2023/08/02 00:04:52;;;;;;;0.10;0.10;;;;;;;16.28;77.69;98235.25;7346996;19;20438;-56
2023/08/02 00:07:18;;;;;;;0.10;0.10;;;;;;;16.27;79.03;98228.31;7348774;19;20079;-58
2023/08/02 00:09:43;;;;;;;0.10;0.10;;;;;;;16.27;79.02;98220.41;7352772;19;20014;-57
2023/08/02 00:12:09;;;;;;;0.10;0.10;;;;;;;16.27;79.22;98220.41;7350074;19;20011;-56
2023/08/02 00:14:34;;;;;;;0.00;0.00;;;;;;;16.28;79.28;98211.53;7352915;19;20035;-57
2023/08/02 00:16:59;;;;;;;0.10;0.10;;;;;;;16.29;79.24;98186.88;7352603;19;20090;-56
2023/08/02 00:19:25;;;;;;;0.10;0.10;;;;;;;16.31;79.64;98194.63;7351903;19;20614;-56
2023/08/02 00:21:50;;;;;;;0.10;0.10;;;;;;;16.19;78.99;98161.47;7348667;19;20024;-57
2023/08/02 00:24:16;;;;;;;0.00;0.00;;;;;;;16.32;78.61;98169.94;7353714;19;20078;-58
2023/08/02 00:26:41;;;;;;;0.10;0.10;;;;;;;16.30;79.49;98166.63;7351293;19;20006;-57
2023/08/02 00:29:06;;;;;;;0.10;0.10;;;;;;;16.32;79.35;98170.81;7349962;19;20029;-57
2023/08/02 00:31:32;;;;;;;0.10;0.10;;;;;;;16.33;79.62;98161.09;7351398;19;20035;-58
2023/08/02 00:33:58;;;;;;;0.00;0.00;;;;;;;16.35;79.11;98162.63;7352041;19;20018;-57
2023/08/02 00:36:23;;;;;;;0.00;0.00;;;;;;;16.37;78.98;98161.66;7354033;19;20041;-57
2023/08/02 00:38:48;;;;;;;0.10;0.10;;;;;;;16.38;78.96;98152.81;7349936;19;20010;-57
2023/08/02 00:41:14;;;;;;;0.10;0.10;;;;;;;16.39;79.12;98149.19;7351884;19;20383;-58
2023/08/02 00:43:41;;;;;;;0.10;0.10;;;;;;;16.40;79.36;98148.22;7348766;19;20010;-58
2023/08/02 00:46:08;;;;;;;0.10;0.10;;;;;;;16.40;79.18;98140.31;7349508;19;20829;-57
2023/08/02 00:48:34;;;;;;;0.08;0.08;;;;;;;16.41;78.96;98131.44;7344995;19;20545;-58
2023/08/02 00:51:04;;;;;;;0.10;0.10;;;;;;;16.39;79.55;98125.50;7352021;19;20054;-54
2023/08/02 00:53:30;;;;;;;0.10;0.10;;;;;;;16.39;79.24;98112.31;7351513;19;20660;-57
2023/08/02 00:55:56;;;;;;;0.05;0.05;;;;;;;16.40;80.02;98103.44;7351438;19;20015;-57
2023/08/02 00:58:21;;;;;;;0.10;0.10;;;;;;;16.41;79.98;98116.47;7349764;19;20739;-57
2023/08/02 01:00:47;;;;;;;0.00;0.00;;;;;;;16.28;78.81;98084.31;7345533;19;20017;-58
2023/08/02 01:03:12;;;;;;;0.10;0.10;;;;;;;16.40;78.97;98099.00;7351731;19;20030;-58
2023/08/02 01:05:43;;;;;;;0.10;0.10;;;;;;;16.42;79.71;98085.69;7348415;19;20026;-58
2023/08/02 01:08:15;;;;;;;0.00;0.00;;;;;;;16.42;78.52;98086.53;7348727;19;20018;-57
2023/08/02 01:10:57;;;;;;;0.10;0.10;;;;;;;16.44;78.69;98083.78;7351629;19;20009;-58
2023/08/02 01:13:23;;;;;;;0.10;0.10;;;;;;;16.42;78.52;98076.00;7346874;19;20006;-56
2023/08/02 01:15:49;;;;;;;0.10;0.10;;;;;;;16.42;78.85;98069.91;7355989;19;20589;-54
2023/08/02 01:18:14;;;;;;;0.10;0.10;;;;;;;16.41;78.58;98062.97;7354893;19;20021;-58
2023/08/02 01:20:40;;;;;;;0.08;0.08;;;;;;;16.41;78.74;98057.69;7359131;19;20018;-56
2023/08/02 01:23:05;;;;;;;0.08;0.08;;;;;;;16.41;78.64;98057.69;7355444;19;20010;-57
2023/08/02 01:25:33;;;;;;;0.00;0.00;;;;;;;16.29;79.42;98028.84;7354440;19;20050;-58
2023/08/02 01:28:02;;;;;;;0.00;0.00;;;;;;;16.39;77.91;98046.47;7357052;19;20006;-55
2023/08/02 01:30:36;;;;;;;0.10;0.10;;;;;;;16.29;78.37;98030.66;7352082;19;20114;-56
2023/08/02 01:33:02;;;;;;;0.03;0.03;;;;;;;16.37;78.54;98048.41;7354694;19;20026;-57
2023/08/02 01:35:27;;;;;;;0.10;0.10;;;;;;;16.37;78.91;98035.22;7357024;19;20031;-56
2023/08/02 01:37:53;;;;;;;0.10;0.10;;;;;;;16.36;78.25;98034.41;7349442;19;20035;-57
2023/08/02 01:40:18;;;;;;;0.10;0.10;;;;;;;16.30;78.30;98008.63;7359284;19;20068;-58
2023/08/02 01:42:44;;;;;;;0.10;0.10;;;;;;;16.33;78.86;98017.09;7360771;19;20021;-58
2023/08/02 01:45:10;;;;;;;0.10;0.10;;;;;;;16.34;79.39;98016.09;7357708;19;20013;-57
2023/08/02 01:47:35;;;;;;;0.10;0.10;;;;;;;16.29;79.23;98007.78;7359376;19;20002;-56
2023/08/02 01:50:01;;;;;;;0.10;0.10;;;;;;;16.33;79.41;98009.19;7360727;19;20680;-58
2023/08/02 01:52:26;;;;;;;0.10;0.10;;;;;;;16.34;79.01;98000.31;7357521;19;20018;-57
2023/08/02 01:54:51;;;;;;;0.00;0.00;;;;;;;16.34;78.75;98007.38;7359773;19;20018;-56
2023/08/02 01:57:17;;;;;;;0.10;0.10;;;;;;;16.35;78.73;98004.59;7359778;19;20010;-58
2023/08/02 01:59:42;;;;;;;0.08;0.08;;;;;;;16.35;78.72;98007.22;7350851;19;20017;-58
2023/08/02 02:02:08;;;;;;;0.10;0.10;;;;;;;16.32;79.47;97997.00;7359247;19;20006;-58
2023/08/02 02:04:33;;;;;;;0.00;0.00;;;;;;;16.22;79.23;97980.34;7358430;19;20010;-58
2023/08/02 02:06:59;;;;;;;0.00;0.00;;;;;;;16.32;79.65;97986.47;7358838;19;20014;-58
2023/08/02 02:09:24;;;;;;;0.00;0.00;;;;;;;16.31;79.70;97979.50;7357102;19;20010;-57
2023/08/02 02:11:49;;;;;;;0.10;0.10;;;;;;;16.19;79.59;97964.81;7357479;19;20018;-56
2023/08/02 02:14:15;;;;;;;0.10;0.10;;;;;;;16.31;79.94;97973.41;7358640;19;20019;-57
2023/08/02 02:16:40;;;;;;;0.00;0.00;;;;;;;16.31;79.65;97973.41;7359144;19;20716;-57
2023/08/02 02:19:06;;;;;;;0.10;0.10;;;;;;;16.29;79.75;97968.28;7356094;19;20777;-57
2023/08/02 02:21:31;;;;;;;0.00;0.00;;;;;;;16.27;79.77;97964.97;7353343;19;20026;-58
2023/08/02 02:23:56;;;;;;;0.00;0.00;;;;;;;16.25;79.96;97953.72;7358785;19;20552;-56
2023/08/02 02:26:23;;;;;;;0.10;0.10;;;;;;;16.19;79.25;97943.75;7354493;19;20014;-58
2023/08/02 02:28:48;;;;;;;0.03;0.03;;;;;;;16.22;79.50;97940.00;7356844;19;20021;-58
2023/08/02 02:31:13;;;;;;;0.10;0.10;;;;;;;16.20;79.55;97934.03;7352404;19;20010;-57
2023/08/02 02:33:39;;;;;;;0.03;0.03;;;;;;;16.19;79.66;97937.66;7357676;19;20006;-58
2023/08/02 02:36:06;;;;;;;0.00;0.00;;;;;;;16.16;80.46;97936.13;7357076;19;20661;-57
2023/08/02 02:38:31;;;;;;;0.10;0.10;;;;;;;16.15;80.11;97937.09;7353645;19;20021;-57
2023/08/02 02:40:57;;;;;;;0.03;0.03;;;;;;;16.08;80.47;97914.94;7357226;19;20010;-58
2023/08/02 02:43:22;;;;;;;0.10;0.10;;;;;;;16.12;80.23;97920.72;7357719;19;20090;-58
2023/08/02 02:45:48;;;;;;;0.10;0.10;;;;;;;16.09;80.37;97911.31;7356711;19;20018;-58
2023/08/02 02:48:13;;;;;;;0.00;0.00;;;;;;;16.08;80.54;97907.03;7357324;19;20022;-58
2023/08/02 02:50:38;;;;;;;0.05;0.05;;;;;;;16.09;80.28;97903.41;7355651;19;20022;-58
2023/08/02 02:53:04;;;;;;;0.00;0.00;;;;;;;16.07;80.43;97902.75;7354620;19;20102;-57
2023/08/02 02:55:29;;;;;;;0.10;0.10;;;;;;;16.05;80.62;97894.97;7351694;19;20023;-57
2023/08/02 02:57:55;;;;;;;0.05;0.05;;;;;;;16.05;80.71;97894.13;7355392;19;20010;-57
2023/08/02 03:00:20;;;;;;;0.10;0.10;;;;;;;16.05;80.74;97888.88;7354688;19;20482;-57
2023/08/02 03:02:45;;;;;;;0.10;0.10;;;;;;;16.05;80.40;97889.69;7355862;19;20041;-58
2023/08/02 03:05:11;;;;;;;0.10;0.10;;;;;;;16.01;81.15;97883.03;7349596;19;20033;-58
2023/08/02 03:07:36;;;;;;;0.10;0.10;;;;;;;15.91;81.36;97857.69;7357895;19;20143;-58
2023/08/02 03:10:02;;;;;;;0.00;0.00;;;;;;;16.06;80.94;97875.56;7353738;19;20486;-57
2023/08/02 03:12:27;;;;;;;0.10;0.10;;;;;;;16.07;80.71;97871.16;7357994;19;20126;-58
2023/08/02 03:14:52;;;;;;;0.00;0.00;;;;;;;16.06;80.86;97864.19;7357120;19;20014;-57
2023/08/02 03:17:18;;;;;;;0.10;0.10;;;;;;;16.06;80.80;97865.03;7356622;19;20014;-56
2023/08/02 03:19:43;;;;;;;0.10;0.10;;;;;;;16.06;80.46;97861.56;7331574;19;20009;-58
2023/08/02 03:22:09;;;;;;;0.10;0.10;;;;;;;16.06;80.52;97858.94;7355556;19;20090;-56
2023/08/02 03:24:34;;;;;;;0.00;0.00;;;;;;;16.05;80.53;97857.28;7355197;19;20041;-56
2023/08/02 03:27:00;;;;;;;0.00;0.00;;;;;;;16.03;80.76;97854.78;7357100;19;20018;-56
2023/08/02 03:29:25;;;;;;;0.00;0.00;;;;;;;16.02;80.84;97847.88;7357174;19;20023;-56
2023/08/02 03:31:51;;;;;;;0.10;0.10;;;;;;;16.01;81.21;97846.19;7354121;19;20014;-57
2023/08/02 03:34:16;;;;;;;0.05;0.05;;;;;;;16.01;81.28;97843.56;7353027;19;20019;-56
2023/08/02 03:36:42;;;;;;;0.00;0.00;;;;;;;16.01;81.01;97838.28;7353614;19;20022;-57
2023/08/02 03:39:08;;;;;;;0.10;0.10;;;;;;;16.01;81.09;97838.28;7355713;19;20026;-55
2023/08/02 03:41:34;;;;;;;0.05;0.05;;;;;;;16.02;81.20;97831.25;7357133;19;20018;-57
2023/08/02 03:43:59;;;;;;;0.00;0.00;;;;;;;16.02;81.31;97815.47;7353744;19;20006;-57
2023/08/02 03:46:25;;;;;;;0.00;0.00;;;;;;;16.04;80.96;97818.78;7356372;19;20018;-58
2023/08/02 03:48:50;;;;;;;0.05;0.05;;;;;;;16.04;81.10;97818.78;7357658;19;20043;-55
2023/08/02 03:51:16;;;;;;;0.10;0.10;;;;;;;16.01;80.92;97805.88;7357820;19;20493;-57
2023/08/02 03:53:41;;;;;;;0.10;0.10;;;;;;;16.05;81.45;97813.34;7345598;19;20038;-56
2023/08/02 03:56:06;;;;;;;0.10;0.10;;;;;;;16.06;81.53;97808.91;7351749;19;20839;-58
2023/08/02 03:58:32;;;;;;;0.10;0.10;;;;;;;16.06;81.48;97806.28;7353062;19;20017;-57
2023/08/02 04:00:57;;;;;;;0.05;0.05;;;;;;;16.05;80.94;97799.38;7357109;19;20742;-56
2023/08/02 04:03:22;;;;;;;0.10;0.10;;;;;;;16.05;81.35;97799.38;7351475;19;20055;-57
2023/08/02 04:05:48;;;;;;;0.10;0.10;;;;;;;16.06;81.42;97801.03;7355846;19;20038;-52
2023/08/02 04:08:13;;;;;;;0.03;0.03;;;;;;;16.04;81.29;97798.53;7353921;19;20473;-57
2023/08/02 04:10:39;;;;;;;0.10;0.10;;;;;;;16.06;81.24;97801.03;7354703;19;20035;-57
2023/08/02 04:13:04;;;;;;;0.00;0.00;;;;;;;16.05;81.23;97794.94;7354101;19;20010;-58
2023/08/02 04:15:31;;;;;;;0.10;0.10;;;;;;;15.94;81.41;97775.84;7353049;19;20010;-57
2023/08/02 04:17:57;;;;;;;0.10;0.10;;;;;;;16.05;81.28;97788.84;7356497;19;20010;-55
2023/08/02 04:20:22;;;;;;;0.10;0.10;;;;;;;16.05;81.33;97784.41;7350858;19;20755;-58
2023/08/02 04:22:49;;;;;;;0.10;0.10;;;;;;;16.07;81.13;97781.66;7356948;19;20348;-57
2023/08/02 04:25:15;;;;;;;0.10;0.10;;;;;;;16.05;81.11;97778.31;7351149;19;20037;-56
2023/08/02 04:27:40;;;;;;;0.00;0.00;;;;;;;16.07;81.25;97781.66;7352255;19;20018;-57
2023/08/02 04:30:07;;;;;;;0.00;0.00;;;;;;;16.07;81.55;97781.66;7350284;19;20010;-58
2023/08/02 04:32:32;;;;;;;0.10;0.10;;;;;;;16.09;81.35;97779.69;7334123;19;20010;-57
2023/08/02 04:34:58;;;;;;;0.10;0.10;;;;;;;16.08;81.29;97768.34;7354023;19;20006;-55
2023/08/02 04:37:23;;;;;;;0.10;0.10;;;;;;;16.09;81.68;97769.16;7353879;19;20723;-57
2023/08/02 04:39:48;;;;;;;0.10;0.10;;;;;;;16.11;81.18;97761.94;7355919;19;20039;-52
2023/08/02 04:42:15;;;;;;;0.10;0.10;;;;;;;16.12;81.17;97761.00;7353517;19;20407;-57
2023/08/02 04:44:41;;;;;;;0.10;0.10;;;;;;;16.13;81.50;97760.03;7354749;19;20022;-58
2023/08/02 04:47:06;;;;;;;0.00;0.00;;;;;;;16.13;81.53;97760.03;7354794;19;20010;-57
2023/08/02 04:49:32;;;;;;;0.10;0.10;;;;;;;16.14;81.00;97751.16;7340685;19;20025;-57
2023/08/02 04:51:57;;;;;;;0.10;0.10;;;;;;;16.14;81.28;97751.16;7362620;19;20047;-57
2023/08/02 04:54:22;;;;;;;0.10;0.10;;;;;;;16.15;80.96;97746.72;7355253;19;20467;-57
2023/08/02 04:56:48;;;;;;;0.03;0.03;;;;;;;16.14;81.33;97745.88;7362430;19;20022;-56
2023/08/02 04:59:13;;;;;;;0.10;0.10;;;;;;;16.16;81.10;97749.19;7353228;19;20027;-56
2023/08/02 05:01:39;;;;;;;0.00;0.00;;;;;;;16.13;81.45;97749.50;7362211;19;20417;-57
2023/08/02 05:04:08;;;;;;;0.00;0.00;;;;;;;16.17;81.38;97750.88;7361077;19;20025;-57
2023/08/02 05:06:33;;;;;;;0.00;0.00;;;;;;;16.18;81.04;97742.00;7358994;19;20573;-55
2023/08/02 05:08:59;;;;;;;0.00;0.00;;;;;;;16.18;81.24;97742.00;7362379;19;20037;-56
2023/08/02 05:11:24;;;;;;;0.10;0.10;;;;;;;16.20;81.34;97744.47;7361937;19;20016;-58
2023/08/02 05:13:49;;;;;;;0.10;0.10;;;;;;;16.18;81.08;97744.63;7355474;19;20002;-56
2023/08/02 05:16:15;;;;;;;0.10;0.10;;;;;;;16.20;81.32;97755.00;7359363;19;20034;-57
2023/08/02 05:18:40;;;;;;;0.10;0.10;;;;;;;16.21;81.12;97736.44;7356858;19;20014;-57
2023/08/02 05:21:16;;;;;;;0.10;0.10;;;;;;;16.25;81.09;97737.81;7363284;19;20074;-56
2023/08/02 05:23:42;;;;;;;0.08;0.08;;;;;;;16.23;81.00;97736.31;7354543;19;20013;-57
2023/08/02 05:26:09;;;;;;;0.10;0.10;;;;;;;16.24;81.39;97741.41;7361095;19;20018;-56
2023/08/02 05:28:35;;;;;;;0.10;0.10;;;;;;;16.25;81.09;97740.44;7357449;19;20042;-57
2023/08/02 05:31:01;;;;;;;0.10;0.10;;;;;;;16.28;81.10;97740.16;7358131;19;20018;-56
2023/08/02 05:33:26;;;;;;;0.10;0.10;;;;;;;16.27;81.08;97733.25;7360477;19;21736;-57
2023/08/02 05:35:52;;;;;;;0.10;0.10;;;;;;;16.29;81.17;97741.81;7359999;19;20011;-57
2023/08/02 05:38:17;;;;;;;0.00;0.00;;;;;;;16.29;81.12;97733.91;7360241;19;20014;-58
2023/08/02 05:40:43;;;;;;;0.10;0.10;;;;;;;16.31;81.09;97742.50;7359489;19;20026;-55
2023/08/02 05:43:08;;;;;;;0.10;0.10;;;;;;;16.31;81.04;97733.78;7360387;19;20101;-55
2023/08/02 05:45:33;;;;;;;0.00;0.00;;;;;;;16.33;81.08;97739.75;7355730;19;20053;-56
2023/08/02 05:47:59;;;;;;;0.00;0.00;;;;;;;16.31;81.33;97731.97;7358781;19;20027;-55
2023/08/02 05:50:25;;;;;;;0.10;0.10;;;;;;;16.32;81.05;97738.91;7361936;19;20033;-56
2023/08/02 05:52:50;;;;;;;0.10;0.10;;;;;;;16.37;81.25;97737.63;7357734;19;20741;-56
2023/08/02 05:55:16;;;;;;;0.10;0.10;;;;;;;16.34;81.00;97731.69;7359264;19;20010;-57
2023/08/02 05:57:42;;;;;;;0.10;0.10;;;;;;;16.39;81.37;97740.97;7353639;19;20015;-56
2023/08/02 06:00:08;;;;;;;0.10;0.10;;;;;;;16.41;81.31;97737.19;7359129;19;20033;-57
2023/08/02 06:02:34;;;;;;;0.00;0.00;;;;;;;16.42;81.22;97738.03;7359339;19;20022;-57
2023/08/02 06:05:00;;;;;;;0.10;0.10;;;;;;;16.43;81.47;97731.81;7358482;19;20040;-57
2023/08/02 06:07:26;;;;;;;0.05;0.05;;;;;;;16.46;81.37;97734.13;7355270;19;20020;-56
2023/08/02 06:09:51;;;;;;;0.05;0.05;;;;;;;16.48;81.11;97737.47;7359993;19;20006;-57
2023/08/02 06:12:17;;;;;;;0.10;0.10;;;;;;;16.50;81.02;97732.88;7357969;19;20485;-57
2023/08/02 06:14:42;;;;;;;0.10;0.10;;;;;;;16.51;81.23;97729.25;7353247;19;20470;-58
2023/08/02 06:17:07;;;;;;;0.10;0.10;;;;;;;16.53;80.88;97735.25;7358581;19;20021;-57
2023/08/02 06:19:33;;;;;;;0.10;0.10;;;;;;;16.55;81.12;97733.28;7356987;19;20017;-58
2023/08/02 06:21:58;;;;;;;0.10;0.10;;;;;;;16.57;80.73;97731.31;7358170;19;20017;-56
2023/08/02 06:24:24;;;;;;;0.10;0.10;;;;;;;16.58;80.99;97733.00;7357708;19;20015;-58
2023/08/02 06:26:49;;;;;;;0.00;0.00;;;;;;;16.60;80.61;97733.66;7359488;19;20475;-57
2023/08/02 06:29:15;;;;;;;0.10;0.10;;;;;;;16.61;80.63;97737.97;7349755;19;20347;-57
2023/08/02 06:31:40;;;;;;;0.10;0.10;;;;;;;16.63;81.00;97740.47;7354987;19;20010;-56
2023/08/02 06:34:06;;;;;;;0.10;0.10;;;;;;;16.63;80.71;97741.28;7356196;19;20018;-57
2023/08/02 06:36:32;;;;;;;0.10;0.10;;;;;;;16.65;80.77;97741.97;7358166;19;21049;-57
2023/08/02 06:38:58;;;;;;;0.00;0.00;;;;;;;16.67;80.70;97741.81;7357094;19;20022;-57
2023/08/02 06:41:23;;;;;;;0.00;0.00;;;;;;;16.68;80.89;97740.88;7359575;19;20605;-58
2023/08/02 06:43:49;;;;;;;0.00;0.00;;;;;;;16.69;80.64;97740.72;7352899;19;20015;-57
2023/08/02 06:46:14;;;;;;;0.10;0.10;;;;;;;16.71;81.03;97738.78;7357615;19;20466;-57
2023/08/02 06:48:40;;;;;;;0.00;0.00;;;;;;;16.73;80.73;97744.75;7357501;19;20023;-56
2023/08/02 06:51:09;;;;;;;0.00;0.00;;;;;;;16.76;80.63;97740.97;7355878;19;20011;-56
2023/08/02 06:53:35;;;;;;;0.10;0.10;;;;;;;16.77;80.54;97743.47;7355240;19;20739;-58
2023/08/02 06:56:09;;;;;;;0.10;0.10;;;;;;;16.83;80.24;97752.63;7354431;19;20133;-57
2023/08/02 06:58:35;;;;;;;0.10;0.10;;;;;;;16.81;80.62;97744.81;7352906;19;20018;-58
2023/08/02 07:01:00;;;;;;;0.10;0.10;;;;;;;16.85;80.68;97750.66;7356607;19;20022;-56
2023/08/02 07:03:25;;;;;;;0.10;0.10;;;;;;;16.86;80.92;97755.75;7355897;19;21069;-57
2023/08/02 07:05:51;;;;;;;0.10;0.10;;;;;;;16.90;80.91;97755.47;7352704;19;20010;-57
2023/08/02 07:08:16;;;;;;;0.10;0.10;;;;;;;16.88;80.40;97752.16;7356163;19;20011;-57
2023/08/02 07:10:42;;;;;;;0.10;0.10;;;;;;;16.93;80.79;97757.81;7354997;19;20046;-56
2023/08/02 07:13:07;;;;;;;0.10;0.10;;;;;;;16.97;80.69;97769.72;7355726;19;20027;-55
2023/08/02 07:15:32;;;;;;;0.10;0.10;;;;;;;16.98;80.69;97774.00;7355240;19;20074;-57
2023/08/02 07:17:58;;;;;;;0.10;0.10;;;;;;;17.02;80.60;97772.75;7357579;19;20700;-57
2023/08/02 07:20:23;;;;;;;0.10;0.10;;;;;;;17.04;80.45;97770.81;7333137;19;20030;-56
2023/08/02 07:22:49;;;;;;;0.10;0.10;;;;;;;17.08;80.63;97777.44;7352818;19;20018;-57
2023/08/02 07:25:14;;;;;;;0.10;0.10;;;;;;;16.99;80.42;97759.88;7355769;19;20003;-58
2023/08/02 07:27:41;;;;;;;0.03;0.03;;;;;;;17.12;80.56;97784.06;7354723;19;20021;-56
2023/08/02 07:30:07;;;;;;;0.10;0.10;;;;;;;17.04;80.53;97776.09;7355195;19;20019;-57
2023/08/02 07:32:33;;;;;;;0.10;0.10;;;;;;;17.14;80.33;97792.69;7353208;19;20033;-57
2023/08/02 07:34:58;;;;;;;0.10;0.10;;;;;;;17.16;80.46;97795.16;7351427;19;20102;-58
2023/08/02 07:37:24;;;;;;;0.10;0.10;;;;;;;17.18;80.32;97794.03;7354527;19;20021;-57
2023/08/02 07:39:50;;;;;;;0.08;0.08;;;;;;;17.20;80.08;97802.63;7354860;19;20022;-58
2023/08/02 07:42:16;;;;;;;0.10;0.10;;;;;;;17.23;80.26;97815.50;7353291;19;20836;-56
2023/08/02 07:44:41;;;;;;;0.00;0.00;;;;;;;17.23;80.41;97810.22;7353837;19;20023;-57
2023/08/02 07:47:07;;;;;;;0.05;0.05;;;;;;;17.25;80.24;97818.03;7355533;19;20101;-55
2023/08/02 07:49:32;;;;;;;0.10;0.10;;;;;;;17.25;80.26;97816.22;7353414;19;20022;-56
2023/08/02 07:51:58;;;;;;;0.00;0.00;;;;;;;17.26;80.08;97817.03;7353179;19;20006;-56
2023/08/02 07:54:24;;;;;;;0.10;0.10;;;;;;;17.28;80.38;97826.44;7352161;19;20014;-57
2023/08/02 07:56:49;;;;;;;0.00;0.00;;;;;;;17.28;80.09;97830.88;7351854;19;20382;-57
2023/08/02 07:59:15;;;;;;;0.10;0.10;;;;;;;17.19;79.95;97810.69;7347713;19;20569;-57
2023/08/02 08:01:41;;;;;;;0.10;0.10;;;;;;;17.29;80.42;97827.31;7354698;19;20028;-55
2023/08/02 08:04:07;;;;;;;0.10;0.10;;;;;;;17.30;80.43;97835.06;7344989;19;20018;-57
2023/08/02 08:06:32;;;;;;;0.10;0.10;;;;;;;17.31;80.46;97842.00;7353811;19;20050;-57
2023/08/02 08:08:58;;;;;;;0.10;0.10;;;;;;;17.30;80.22;97840.34;7353095;19;20033;-56
2023/08/02 08:11:27;;;;;;;0.10;0.10;;;;;;;17.35;80.05;97846.00;7353273;19;20475;-57
2023/08/02 08:13:52;;;;;;;0.10;0.10;;;;;;;17.28;80.12;97844.91;7347086;19;20046;-56
2023/08/02 08:16:18;;;;;;;0.10;0.10;;;;;;;17.32;80.14;97843.63;7352642;19;20006;-55
2023/08/02 08:18:43;;;;;;;0.10;0.10;;;;;;;17.32;79.96;97854.19;7355661;19;20010;-56
2023/08/02 08:21:08;;;;;;;0.10;0.10;;;;;;;17.24;80.10;97840.94;7350772;19;20007;-58
2023/08/02 08:23:35;;;;;;;0.10;0.10;;;;;;;17.31;79.86;97868.38;7351828;19;20022;-56
2023/08/02 08:26:00;;;;;;;0.10;0.10;;;;;;;17.29;79.88;97870.31;7351155;19;20545;-57
2023/08/02 08:28:26;;;;;;;0.10;0.10;;;;;;;17.28;80.29;97871.28;7355888;19;20025;-57
2023/08/02 08:31:01;;;;;;;0.05;0.05;;;;;;;17.31;79.75;97871.00;7345323;19;20356;-57
2023/08/02 08:33:27;;;;;;;0.10;0.10;;;;;;;17.26;80.16;97881.16;7349550;19;20024;-55
2023/08/02 08:35:53;;;;;;;0.05;0.05;;;;;;;17.25;80.34;97890.06;7352024;19;20010;-56
2023/08/02 08:38:18;;;;;;;0.10;0.10;;;;;;;17.13;80.10;97875.38;7350675;19;20929;-57
2023/08/02 08:40:50;;;;;;;0.08;0.08;;;;;;;17.26;80.10;97886.44;7355265;19;20472;-56
2023/08/02 08:43:16;;;;;;;0.08;0.08;;;;;;;17.23;80.61;97896.44;7353581;19;20474;-55
2023/08/02 08:45:43;;;;;;;0.00;0.00;;;;;;;17.23;80.43;97892.00;7350498;19;20038;-57
2023/08/02 08:48:09;;;;;;;0.10;0.10;;;;;;;17.22;80.74;97900.88;7354354;19;20011;-58
2023/08/02 08:50:34;;;;;;;0.10;0.10;;;;;;;17.23;80.50;97902.53;7355337;19;20016;-58
2023/08/02 08:53:04;;;;;;;0.08;0.08;;;;;;;17.26;80.68;97902.25;7353406;19;20026;-57
2023/08/02 08:55:32;;;;;;;0.10;0.10;;;;;;;17.13;80.12;97888.56;7350064;19;20010;-57
2023/08/02 08:57:58;;;;;;;0.10;0.10;;;;;;;17.25;80.40;97905.06;7354750;19;20029;-57
2023/08/02 09:00:23;;;;;;;0.10;0.10;;;;;;;17.26;80.44;97910.16;7336946;19;20010;-58
2023/08/02 09:02:50;;;;;;;0.10;0.10;;;;;;;17.28;80.36;97908.22;7346476;19;20010;-58
2023/08/02 09:05:16;;;;;;;0.10;0.10;;;;;;;17.29;80.22;97923.06;7348741;19;20024;-57
2023/08/02 09:07:41;;;;;;;0.05;0.05;;;;;;;17.30;80.05;97930.00;7352678;19;20474;-56
2023/08/02 09:10:07;;;;;;;0.08;0.08;;;;;;;17.31;80.24;97926.38;7351770;19;20019;-58
2023/08/02 09:12:45;;;;;;;0.10;0.10;;;;;;;17.37;79.79;97930.25;7353755;19;20015;-58
2023/08/02 09:15:13;;;;;;;0.10;0.10;;;;;;;17.35;80.05;97938.31;7346579;19;20018;-57
2023/08/02 09:17:45;;;;;;;;;;;;;;;17.42;79.35;97943.00;7351483;19;20018;-57
2023/08/02 09:20:11;;;;;;;0.05;0.05;;;;;;;17.38;80.04;97939.81;7348385;19;19942;-58
2023/08/02 09:22:37;;;;;;;0.10;0.10;;;;;;;17.39;80.37;97944.16;7350486;19;20011;-57
2023/08/02 09:25:06;;;;;;;0.10;0.10;;;;;;;17.41;79.97;97944.00;7348719;19;20010;-57
2023/08/02 09:27:32;;;;;;;0.10;0.10;;;;;;;17.40;80.49;97955.53;7351071;19;20013;-57
2023/08/02 09:29:58;;;;;;;0.10;0.10;;;;;;;17.41;80.47;97958.00;7350105;19;20011;-57
2023/08/02 09:32:24;;;;;;;0.10;0.10;;;;;;;17.43;79.98;97965.78;7351175;19;20796;-58
2023/08/02 09:34:55;;;;;;;0.10;0.10;;;;;;;17.45;79.87;97977.03;7350948;19;20661;-57
2023/08/02 09:37:30;;;;;;;0.10;0.10;;;;;;;17.46;80.10;97982.16;7354689;19;20688;-58
2023/08/02 09:39:55;;;;;;;0.10;0.10;;;;;;;17.43;80.53;97981.59;7359422;19;20661;-58
2023/08/02 09:42:23;;;;;;;0.10;0.10;;;;;;;17.45;80.35;97972.56;7361348;19;20006;-57
2023/08/02 09:44:55;;;;;;;0.10;0.10;;;;;;;17.47;80.27;97982.97;7358054;19;20023;-57
2023/08/02 09:47:21;;;;;;;0.10;0.10;;;;;;;17.44;80.32;97989.38;7361945;19;20018;-57
2023/08/02 09:50:16;;;;;;;0.10;0.10;;;;;;;17.50;79.63;97998.53;7352913;19;20053;-58
2023/08/02 09:52:41;;;;;;;0.10;0.10;;;;;;;17.45;79.91;98006.03;7258561;19;2004250;-58
2023/08/02 09:55:08;;;;;;;0.03;0.03;;;;;;;17.45;80.48;98003.41;7352316;19;20010;-56
2023/08/02 09:57:34;;;;;;;0.10;0.10;;;;;;;17.47;80.05;98014.63;7358203;19;20014;-58
2023/08/02 10:00:07;;;;;;;0.10;0.10;;;;;;;17.50;79.83;98017.81;7355434;19;20128;-57
2023/08/02 10:02:34;;;;;;;0.10;0.10;;;;;;;17.49;80.20;98016.16;7359211;19;20010;-60
2023/08/02 10:05:01;;;;;;;0.10;0.10;;;;;;;17.49;80.03;98029.38;7355102;19;20150;-58
2023/08/02 10:07:40;;;;;;;0.10;0.10;;;;;;;17.52;79.70;98036.97;7357998;19;20007;-57
2023/08/02 10:10:35;;;;;;;0.03;0.03;;;;;;;17.54;79.62;98042.13;7358046;19;20005;-57
2023/08/02 10:13:25;;;;;;;0.10;0.10;;;;;;;17.52;79.19;98044.06;7252986;19;2004504;-57
2023/08/02 10:15:51;;;;;;;0.03;0.03;;;;;;;17.41;79.97;98046.88;7254987;19;2004941;-56
2023/08/02 10:18:17;;;;;;;0.05;0.05;;;;;;;17.47;79.99;98052.41;7356322;19;20026;-57
2023/08/02 10:20:44;;;;;;;0.10;0.10;;;;;;;17.46;80.25;98052.56;7356343;19;20491;-55
2023/08/02 10:23:09;;;;;;;0.10;0.10;;;;;;;17.45;80.27;98069.38;7358087;19;20014;-58
2023/08/02 10:25:35;;;;;;;0.10;0.10;;;;;;;17.44;80.02;98068.53;7357349;19;20032;-57
2023/08/02 10:28:02;;;;;;;0.10;0.10;;;;;;;17.44;79.98;98080.91;7356661;19;20423;-58
2023/08/02 10:30:30;;;;;;;0.10;0.10;;;;;;;17.45;79.81;98082.56;7356850;19;20030;-56
2023/08/02 10:33:14;;;;;;;;;;;;;;;17.48;78.90;98084.88;7357913;19;20465;-57
2023/08/02 10:36:02;;;;;;;0.10;0.10;;;;;;;17.46;78.84;98086.84;7360724;19;19923;-58
2023/08/02 10:38:37;;;;;;;0.10;0.10;;;;;;;17.42;79.41;98093.38;7353647;19;20018;-56
2023/08/02 10:41:10;;;;;;;0.10;0.10;;;;;;;17.36;79.89;98098.25;7339706;19;20817;-58
2023/08/02 10:43:53;;;;;;;0.10;0.10;;;;;;;17.36;79.64;98107.97;7358539;19;20451;-58
2023/08/02 10:46:22;;;;;;;0.00;0.00;;;;;;;17.29;79.81;98113.00;7357716;19;20003;-57
2023/08/02 10:48:47;;;;;;;0.10;0.10;;;;;;;17.28;80.13;98113.94;7358042;19;20365;-56
2023/08/02 10:51:32;;;;;;;0.00;0.00;;;;;;;17.19;79.28;98090.25;7360569;19;20010;-58
2023/08/02 10:54:21;;;;;;;0.00;0.00;;;;;;;17.31;79.63;98128.66;7358266;19;20035;-57
2023/08/02 10:56:57;;;;;;;0.10;0.10;;;;;;;17.29;80.50;98125.34;7358655;19;21017;-57
2023/08/02 10:59:22;;;;;;;0.00;0.00;;;;;;;17.28;80.37;98131.56;7353377;19;20034;-57
2023/08/02 11:02:07;;;;;;;0.08;0.08;;;;;;;17.34;79.96;98136.31;7360105;19;20355;-57
2023/08/02 11:04:37;;;;;;;0.10;0.10;;;;;;;17.30;80.46;98135.75;7356512;19;20690;-57
2023/08/02 11:07:16;;;;;;;0.10;0.10;;;;;;;17.36;79.99;98139.63;7356118;19;20019;-58
2023/08/02 11:09:42;;;;;;;0.10;0.10;;;;;;;17.32;80.45;98154.91;7359833;19;20014;-57
2023/08/02 11:12:12;;;;;;;0.10;0.10;;;;;;;17.32;80.15;98154.06;7358215;19;20003;-58
2023/08/02 11:14:39;;;;;;;0.10;0.10;;;;;;;17.26;80.60;98144.91;7358899;19;20783;-58
2023/08/02 11:17:05;;;;;;;0.10;0.10;;;;;;;17.31;80.30;98152.41;7357460;19;20027;-58
2023/08/02 11:19:31;;;;;;;0.10;0.10;;;;;;;17.38;80.33;98170.16;7355266;19;20014;-57
2023/08/02 11:21:58;;;;;;;0.10;0.10;;;;;;;17.40;80.24;98174.47;7360008;19;20872;-57
2023/08/02 11:24:23;;;;;;;0.10;0.10;;;;;;;17.40;80.40;98179.75;7333230;19;20038;-58
2023/08/02 11:26:57;;;;;;;0.08;0.08;;;;;;;17.44;80.41;98189.06;7353918;19;20023;-56
2023/08/02 11:29:23;;;;;;;0.10;0.10;;;;;;;17.42;80.64;98180.44;7354497;19;20014;-57
2023/08/02 11:31:50;;;;;;;0.10;0.10;;;;;;;17.46;80.57;98187.09;7356637;19;20018;-56